Time;durP1;ratioP1;P1;durP2;ratioP2;P2;SDS_P1;SDS_P2;PMS_P1;PMS_P2;Temp;Humidity;BMP_temperature;BMP_pressure;BME280_temperature;BME280_humidity;BME280_pressure;Samples;Min_cycle;Max_cycle;Signal;HPM_P1;HPM_P2
2021/11/18 00:02:02;;;;;;;12.05;2.10;;;;;;;7.37;77.19;99993.25;4965178;29;20027;-68
2021/11/18 00:04:28;;;;;;;12.75;2.38;;;;;;;7.35;77.26;100002.72;4965457;29;20019;-68
2021/11/18 00:06:54;;;;;;;22.40;3.00;;;;;;;7.38;77.58;100002.69;4947164;29;20023;-68
2021/11/18 00:09:22;;;;;;;11.50;2.22;;;;;;;7.41;77.60;99997.53;4965160;29;20061;-68
2021/11/18 00:11:50;;;;;;;14.40;2.50;;;;;;;7.43;77.31;100006.16;4965090;29;20019;-68
2021/11/18 00:14:17;;;;;;;15.80;2.70;;;;;;;7.40;77.33;99998.41;4965069;29;20027;-68
2021/11/18 00:16:42;;;;;;;23.15;3.58;;;;;;;7.42;77.51;100003.56;4964832;29;20051;-68
2021/11/18 00:19:08;;;;;;;14.40;3.13;;;;;;;7.41;77.35;100001.84;4964974;29;20059;-69
2021/11/18 00:21:36;;;;;;;15.60;2.85;;;;;;;7.42;77.52;100007.03;4964856;29;20027;-68
2021/11/18 00:24:02;;;;;;;15.50;2.00;;;;;;;7.40;77.51;100003.56;4964934;29;20391;-68
2021/11/18 00:26:30;;;;;;;16.45;2.88;;;;;;;7.39;77.59;99999.28;4965036;29;20038;-68
2021/11/18 00:28:55;;;;;;;11.45;3.13;;;;;;;7.30;77.72;99978.63;4964969;29;20042;-67
2021/11/18 00:31:28;;;;;;;13.93;2.83;;;;;;;7.43;77.48;99995.81;4964831;29;20451;-68
2021/11/18 00:33:54;;;;;;;14.82;2.22;;;;;;;7.51;77.14;99998.38;4964907;29;20460;-68
2021/11/18 00:36:20;;;;;;;13.18;3.08;;;;;;;7.49;77.31;99996.66;4964917;29;20033;-67
2021/11/18 00:38:46;;;;;;;14.40;2.92;;;;;;;7.59;77.16;100007.84;4964657;29;20031;-68
2021/11/18 00:41:13;;;;;;;18.90;3.42;;;;;;;7.63;77.48;100005.25;4964867;29;20135;-67
2021/11/18 00:43:39;;;;;;;16.52;2.03;;;;;;;7.61;77.48;100004.38;4964864;29;20058;-67
2021/11/18 00:46:05;;;;;;;21.98;3.85;;;;;;;7.70;77.61;100013.81;4964539;29;20027;-68
2021/11/18 00:48:30;;;;;;;14.88;2.40;;;;;;;7.77;77.53;100007.78;4964858;29;20518;-67
2021/11/18 00:50:59;;;;;;;20.25;2.88;;;;;;;7.81;77.73;100008.66;4964954;29;20062;-67
2021/11/18 00:53:25;;;;;;;15.88;2.03;;;;;;;7.79;77.33;99992.28;4947383;29;20023;-67
2021/11/18 00:55:51;;;;;;;9.82;1.92;;;;;;;7.75;75.85;100001.75;4964965;29;20035;-69
2021/11/18 00:58:18;;;;;;;12.75;2.03;;;;;;;7.82;75.59;100007.78;4964857;29;20054;-69
2021/11/18 01:00:45;;;;;;;11.98;2.65;;;;;;;7.79;75.06;100008.66;4964750;29;20035;-67
2021/11/18 01:03:12;;;;;;;15.77;1.90;;;;;;;7.79;74.96;100000.03;4964651;29;20027;-68
2021/11/18 01:05:41;;;;;;;7.32;1.65;;;;;;;7.79;74.63;100008.66;4964583;29;20047;-67
2021/11/18 01:08:07;;;;;;;14.80;1.83;;;;;;;7.85;74.66;100015.50;4964715;29;20027;-68
2021/11/18 01:10:39;;;;;;;14.63;1.58;;;;;;;7.92;74.27;100024.09;4964729;29;20027;-68
2021/11/18 01:13:06;;;;;;;12.13;2.20;;;;;;;7.89;73.94;100019.78;4964540;29;20487;-68
2021/11/18 01:15:34;;;;;;;14.05;1.98;;;;;;;7.91;73.85;100012.91;4964800;29;20034;-68
2021/11/18 01:18:00;;;;;;;16.80;2.25;;;;;;;7.96;74.26;100022.34;4964008;28;20062;-67
2021/11/18 01:20:26;;;;;;;12.50;1.80;;;;;;;7.96;74.27;100014.59;4967564;29;20031;-67
2021/11/18 01:22:54;;;;;;;8.10;2.17;;;;;;;8.02;73.93;100019.78;4968329;29;20053;-69
2021/11/18 01:25:20;;;;;;;12.73;1.77;;;;;;;7.96;74.65;100015.47;4968326;29;20031;-67
2021/11/18 01:27:46;;;;;;;6.45;1.77;;;;;;;7.96;73.75;100027.53;4968022;29;20031;-67
2021/11/18 01:30:16;;;;;;;8.32;1.80;;;;;;;7.93;73.72;100021.53;4968404;29;20471;-66
2021/11/18 01:32:42;;;;;;;8.40;1.77;;;;;;;7.98;72.62;100020.63;4968051;29;20109;-67
2021/11/18 01:35:09;;;;;;;8.20;1.90;;;;;;;7.93;72.54;100018.06;4966759;29;20023;-67
2021/11/18 01:37:35;;;;;;;13.90;2.30;;;;;;;7.88;72.40;100010.31;4968084;29;20333;-69
2021/11/18 01:40:00;;;;;;;11.25;2.00;;;;;;;7.83;72.29;99998.31;4968037;29;20051;-68
2021/11/18 01:42:26;;;;;;;15.88;2.03;;;;;;;7.86;72.67;100004.28;4967952;29;20046;-68
2021/11/18 01:44:55;;;;;;;10.43;1.80;;;;;;;7.88;72.65;100006.88;4967895;29;20078;-68
2021/11/18 01:47:21;;;;;;;11.60;1.58;;;;;;;7.81;72.45;100011.22;4967574;29;20106;-67
2021/11/18 01:49:48;;;;;;;15.85;2.47;;;;;;;7.73;72.42;100000.88;4966392;29;20027;-68
2021/11/18 01:52:18;;;;;;;8.82;2.28;;;;;;;7.75;72.15;100013.81;4967885;29;20054;-68
2021/11/18 01:54:44;;;;;;;12.88;2.63;;;;;;;7.66;72.36;100013.00;4967394;29;20029;-68
2021/11/18 01:57:15;;;;;;;8.98;1.40;;;;;;;7.64;71.69;100019.00;4967363;29;20063;-68
2021/11/18 01:59:44;;;;;;;7.32;1.55;;;;;;;7.51;71.91;99995.78;4967275;29;20063;-68
2021/11/18 02:02:11;;;;;;;9.88;1.83;;;;;;;7.52;71.66;100017.31;4967303;29;20031;-68
2021/11/18 02:04:54;;;;;;;9.95;1.60;;;;;;;7.50;71.83;100013.88;4967364;29;20058;-68
2021/11/18 02:07:20;;;;;;;4.88;1.05;;;;;;;7.54;71.89;100020.78;4949884;29;20091;-68
2021/11/18 02:09:48;;;;;;;6.55;1.25;;;;;;;7.54;71.75;100021.63;4967313;29;20063;-68
2021/11/18 02:12:23;;;;;;;7.88;1.50;;;;;;;7.52;71.73;100032.81;4967134;29;20070;-68
2021/11/18 02:14:49;;;;;;;13.32;1.83;;;;;;;7.50;72.10;100026.78;4967259;29;20023;-68
2021/11/18 02:17:16;;;;;;;8.48;2.20;;;;;;;7.47;72.04;100035.41;4966702;29;20118;-67
2021/11/18 02:19:47;;;;;;;10.23;1.98;;;;;;;7.45;72.27;100039.72;4967329;29;20142;-68
2021/11/18 02:22:13;;;;;;;8.90;1.73;;;;;;;7.47;72.42;100035.41;4966995;29;20086;-68
2021/11/18 02:24:52;;;;;;;13.80;1.52;;;;;;;7.43;72.80;100036.25;4967050;29;20075;-68
2021/11/18 02:27:21;;;;;;;12.18;2.80;;;;;;;7.38;72.84;100038.84;4966808;29;20054;-68
2021/11/18 02:29:50;;;;;;;14.57;1.95;;;;;;;7.36;73.18;100042.31;4966507;28;20111;-68
2021/11/18 02:32:19;;;;;;;10.35;1.73;;;;;;;7.29;73.19;100038.88;4966708;29;20027;-68
2021/11/18 02:35:11;;;;;;;13.60;2.30;;;;;;;7.29;73.64;100038.88;4966774;29;20023;-68
2021/11/18 02:37:36;;;;;;;10.75;3.65;;;;;;;7.25;73.61;100026.84;4949293;29;20027;-68
2021/11/18 02:40:03;;;;;;;8.30;1.92;;;;;;;7.18;73.72;100024.25;4966891;29;20082;-66
2021/11/18 02:42:28;;;;;;;18.35;2.15;;;;;;;7.24;73.83;100030.25;4966441;29;20051;-67
2021/11/18 02:44:56;;;;;;;9.32;1.92;;;;;;;7.17;73.90;100027.69;4966735;29;20043;-67
2021/11/18 02:47:22;;;;;;;9.77;1.60;;;;;;;7.21;73.88;100030.25;4966164;29;20060;-67
2021/11/18 02:49:52;;;;;;;12.95;2.10;;;;;;;7.14;74.19;100032.84;4966613;29;20023;-66
2021/11/18 02:52:27;;;;;;;12.73;1.92;;;;;;;7.14;74.21;100032.84;4966548;29;20018;-67
2021/11/18 02:54:58;;;;;;;11.32;1.95;;;;;;;7.17;74.27;100019.94;4966478;29;20471;-68
2021/11/18 02:57:23;;;;;;;12.90;1.95;;;;;;;7.17;74.34;100017.34;4966506;29;20038;-66
2021/11/18 02:59:49;;;;;;;11.52;1.90;;;;;;;7.16;74.39;100025.97;4966408;29;20031;-68
2021/11/18 03:02:14;;;;;;;12.45;1.70;;;;;;;7.15;74.57;100024.25;4966040;29;20035;-68
2021/11/18 03:04:40;;;;;;;8.15;1.75;;;;;;;7.14;74.28;100024.25;4966230;29;20035;-68
2021/11/18 03:07:05;;;;;;;11.93;1.80;;;;;;;7.13;74.64;100028.56;4966191;29;20027;-68
2021/11/18 03:09:32;;;;;;;9.80;1.90;;;;;;;7.12;74.66;100019.09;4966402;29;20241;-67
2021/11/18 03:11:58;;;;;;;16.90;3.13;;;;;;;7.16;74.46;100025.09;4966071;29;20027;-68
2021/11/18 03:14:26;;;;;;;12.32;1.85;;;;;;;7.09;74.52;100026.84;4966062;29;20030;-67
2021/11/18 03:16:52;;;;;;;17.00;2.40;;;;;;;7.06;74.96;100032.00;4965986;29;20059;-68
2021/11/18 03:19:17;;;;;;;9.07;2.22;;;;;;;6.98;74.98;100034.56;4966011;29;20035;-68
2021/11/18 03:21:43;;;;;;;9.00;2.03;;;;;;;6.96;74.96;100048.34;4966099;29;20037;-68
2021/11/18 03:24:09;;;;;;;14.85;2.30;;;;;;;6.94;75.26;100043.19;4965859;29;20027;-67
2021/11/18 03:26:34;;;;;;;11.68;1.90;;;;;;;6.92;74.98;100045.75;4966065;29;20027;-68
2021/11/18 03:29:03;;;;;;;11.93;2.05;;;;;;;6.97;75.01;100052.63;4965918;29;20031;-68
2021/11/18 03:31:28;;;;;;;13.45;2.78;;;;;;;6.88;75.11;100056.94;4965504;29;20111;-67
2021/11/18 03:33:57;;;;;;;11.40;2.00;;;;;;;6.98;74.90;100055.22;4965777;29;20055;-68
2021/11/18 03:36:24;;;;;;;12.77;1.98;;;;;;;6.97;74.96;100055.22;4965702;29;20043;-67
2021/11/18 03:38:52;;;;;;;10.93;2.10;;;;;;;6.96;75.11;100058.66;4965470;29;20055;-66
2021/11/18 03:41:19;;;;;;;13.13;2.17;;;;;;;6.90;75.11;100050.06;4965175;28;20078;-66
2021/11/18 03:43:50;;;;;;;7.35;2.20;;;;;;;6.87;75.21;100052.63;4965371;29;20034;-66
2021/11/18 03:46:19;;;;;;;8.70;2.33;;;;;;;6.92;75.01;100053.50;4965568;29;20054;-67
2021/11/18 03:48:44;;;;;;;8.80;1.63;;;;;;;6.84;74.98;100054.38;4965446;29;20603;-67
2021/11/18 03:51:10;;;;;;;10.68;1.60;;;;;;;6.88;74.79;100056.94;4965576;29;20070;-68
2021/11/18 03:53:37;;;;;;;16.42;2.45;;;;;;;6.86;74.81;100062.94;4965293;29;20519;-68
2021/11/18 03:56:12;;;;;;;7.45;2.15;;;;;;;6.85;75.02;100061.25;4965316;29;20055;-68
2021/11/18 03:58:38;;;;;;;12.98;1.75;;;;;;;6.83;75.18;100056.06;4965438;29;20031;-68
2021/11/18 04:01:04;;;;;;;16.95;1.83;;;;;;;6.85;75.19;100066.41;4965327;29;20036;-68
2021/11/18 04:03:30;;;;;;;9.15;1.95;;;;;;;6.88;75.08;100059.53;4965198;29;20023;-68
2021/11/18 04:05:57;;;;;;;8.60;1.73;;;;;;;6.88;75.07;100063.81;4965203;29;20549;-67
2021/11/18 04:08:22;;;;;;;9.13;1.90;;;;;;;6.92;75.07;100076.72;4947752;29;20054;-67
2021/11/18 04:10:48;;;;;;;9.48;2.05;;;;;;;6.98;74.82;100073.28;4965466;29;20019;-67
2021/11/18 04:13:14;;;;;;;8.43;1.85;;;;;;;6.94;74.80;100069.00;4965274;29;20082;-67
2021/11/18 04:15:42;;;;;;;8.40;1.42;;;;;;;6.96;74.65;100071.56;4964875;29;20093;-67
2021/11/18 04:18:09;;;;;;;16.17;2.28;;;;;;;6.93;74.50;100073.28;4964981;29;20059;-67
2021/11/18 04:20:35;;;;;;;12.27;1.67;;;;;;;6.97;74.31;100078.44;4965122;29;20043;-67
2021/11/18 04:23:02;;;;;;;14.65;1.85;;;;;;;7.01;73.88;100067.28;4947650;29;20019;-67
2021/11/18 04:25:32;;;;;;;11.77;1.85;;;;;;;7.01;73.83;100078.44;4965008;29;20034;-67
2021/11/18 04:27:59;;;;;;;8.20;1.15;;;;;;;6.96;73.57;100079.31;4964715;29;20053;-68
2021/11/18 04:30:29;;;;;;;5.03;1.27;;;;;;;6.99;73.66;100074.16;4965016;29;20031;-68
2021/11/18 04:32:55;;;;;;;11.77;2.03;;;;;;;7.02;73.64;100081.91;4964697;29;20173;-68
2021/11/18 04:35:20;;;;;;;14.18;2.25;;;;;;;7.05;73.73;100081.91;4964794;29;20019;-68
2021/11/18 04:37:46;;;;;;;12.70;1.77;;;;;;;7.03;73.37;100076.72;4963403;29;20027;-68
2021/11/18 04:40:12;;;;;;;12.95;1.73;;;;;;;7.03;73.30;100093.94;4964671;29;20028;-68
2021/11/18 04:42:40;;;;;;;4.93;1.30;;;;;;;6.95;73.38;100093.94;4964647;29;20089;-68
2021/11/18 04:45:06;;;;;;;16.45;2.35;;;;;;;6.94;73.37;100094.78;4964783;29;20019;-68
2021/11/18 04:47:32;;;;;;;15.10;1.80;;;;;;;6.91;73.58;100095.66;4964568;29;20038;-68
2021/11/18 04:49:57;;;;;;;8.05;1.83;;;;;;;6.93;73.30;100091.34;4964608;29;20035;-67
2021/11/18 04:52:23;;;;;;;9.05;1.60;;;;;;;6.91;73.59;100084.47;4964785;28;20061;-67
2021/11/18 04:54:48;;;;;;;7.03;1.70;;;;;;;6.90;73.45;100077.59;4968748;29;20059;-66
2021/11/18 04:57:14;;;;;;;10.45;2.00;;;;;;;6.90;73.48;100081.00;4968758;29;20043;-66
2021/11/18 04:59:40;;;;;;;11.43;1.85;;;;;;;6.92;73.44;100081.03;4968771;29;20023;-66
2021/11/18 05:02:05;;;;;;;12.43;1.98;;;;;;;6.95;73.55;100086.19;4968793;29;20034;-67
2021/11/18 05:04:31;;;;;;;10.63;2.00;;;;;;;6.92;73.23;100102.53;4967513;29;20016;-69
2021/11/18 05:06:56;;;;;;;11.57;2.10;;;;;;;6.91;73.26;100093.09;4968637;29;20046;-68
2021/11/18 05:09:22;;;;;;;10.05;1.77;;;;;;;6.85;73.23;100105.97;4968655;29;20053;-70
2021/11/18 05:11:47;;;;;;;7.50;1.40;;;;;;;6.81;73.18;100099.06;4968841;29;20507;-69
2021/11/18 05:14:13;;;;;;;13.25;1.63;;;;;;;7.03;72.96;100119.75;4968561;29;20049;-68
2021/11/18 05:16:39;;;;;;;5.18;1.25;;;;;;;6.96;72.88;100116.31;4968107;29;20051;-70
2021/11/18 05:19:05;;;;;;;6.32;1.40;;;;;;;7.03;72.73;100119.75;4968506;29;20039;-69
2021/11/18 05:21:31;;;;;;;6.30;1.50;;;;;;;7.03;72.49;100099.09;4968456;29;20023;-68
2021/11/18 05:23:59;;;;;;;5.07;1.15;;;;;;;7.05;72.59;100108.59;4968356;29;20075;-68
2021/11/18 05:26:26;;;;;;;5.43;1.10;;;;;;;7.09;72.52;100112.03;4950952;29;20023;-68
2021/11/18 05:28:52;;;;;;;11.65;1.65;;;;;;;7.13;72.34;100126.66;4966842;29;20031;-72
2021/11/18 05:31:20;;;;;;;8.25;1.95;;;;;;;7.15;72.39;100144.72;4968255;29;20031;-67
2021/11/18 05:33:46;;;;;;;11.52;1.70;;;;;;;7.15;72.32;100139.56;4968102;29;20106;-67
2021/11/18 05:36:12;;;;;;;12.07;1.55;;;;;;;7.14;72.11;100146.44;4968000;29;20031;-67
2021/11/18 05:38:38;;;;;;;10.48;3.08;;;;;;;7.17;72.06;100153.34;4967840;29;20030;-67
2021/11/18 05:41:03;;;;;;;6.72;1.50;;;;;;;7.19;72.04;100167.97;4967682;29;20024;-67
2021/11/18 05:43:30;;;;;;;16.80;2.08;;;;;;;7.22;72.19;100169.69;4967574;29;20074;-67
2021/11/18 05:45:57;;;;;;;7.20;1.35;;;;;;;7.23;72.01;100162.81;4968174;29;20276;-67
2021/11/18 05:48:22;;;;;;;9.85;2.85;;;;;;;7.12;71.65;100157.63;4967829;29;20035;-68
2021/11/18 05:50:55;;;;;;;11.85;1.60;;;;;;;7.15;71.83;100149.91;4950812;29;20051;-69
2021/11/18 05:53:25;;;;;;;6.90;1.38;;;;;;;7.10;71.53;100157.63;4968039;29;20024;-68
2021/11/18 05:55:52;;;;;;;7.20;2.38;;;;;;;7.12;71.79;100163.66;4967802;29;20357;-68
2021/11/18 05:58:18;;;;;;;8.63;1.52;;;;;;;7.07;71.85;100136.97;4967807;29;20114;-68
2021/11/18 06:00:43;;;;;;;6.35;1.55;;;;;;;7.05;71.64;100129.22;4967803;29;20027;-68
2021/11/18 06:03:09;;;;;;;11.75;1.48;;;;;;;7.07;71.69;100117.19;4967765;29;20412;-68
2021/11/18 06:05:34;;;;;;;7.70;1.48;;;;;;;7.12;71.70;100113.75;4966792;28;20031;-68
2021/11/18 06:08:00;;;;;;;12.55;3.25;;;;;;;7.08;71.55;100105.13;4967876;29;20109;-68
2021/11/18 06:10:27;;;;;;;17.35;2.10;;;;;;;7.16;71.72;100118.03;4950260;29;20093;-70
2021/11/18 06:12:53;;;;;;;7.10;1.58;;;;;;;7.17;71.74;100125.78;4967527;29;20436;-68
2021/11/18 06:15:19;;;;;;;12.10;1.95;;;;;;;7.13;71.54;100121.50;4967472;29;20550;-69
2021/11/18 06:17:45;;;;;;;8.07;1.80;;;;;;;7.13;71.27;100129.25;4967010;28;20403;-69
2021/11/18 06:20:13;;;;;;;6.93;1.73;;;;;;;7.20;71.45;100135.28;4967306;29;20467;-69
2021/11/18 06:22:39;;;;;;;7.60;1.48;;;;;;;7.17;71.46;100154.19;4967465;29;20093;-69
2021/11/18 06:25:06;;;;;;;15.38;2.13;;;;;;;7.26;71.41;100165.41;4967483;29;20027;-69
2021/11/18 06:27:34;;;;;;;10.98;2.58;;;;;;;7.28;71.37;100169.72;4967231;29;20392;-68
2021/11/18 06:29:59;;;;;;;8.68;1.52;;;;;;;7.30;71.25;100173.16;4967203;29;20102;-69
2021/11/18 06:32:24;;;;;;;11.82;2.53;;;;;;;7.26;71.27;100160.25;4967269;29;20027;-68
2021/11/18 06:34:51;;;;;;;5.65;1.52;;;;;;;7.32;71.14;100163.69;4967237;29;20056;-68
2021/11/18 06:37:17;;;;;;;9.40;1.77;;;;;;;7.37;70.85;100163.69;4967177;29;20031;-68
2021/11/18 06:39:43;;;;;;;11.25;2.13;;;;;;;7.38;70.91;100155.06;4949306;29;20027;-68
2021/11/18 06:42:10;;;;;;;15.85;1.50;;;;;;;7.39;70.83;100161.13;4967053;29;20360;-69
2021/11/18 06:44:37;;;;;;;11.50;1.88;;;;;;;7.36;70.84;100168.84;4965443;29;20118;-68
2021/11/18 06:47:03;;;;;;;10.50;1.80;;;;;;;7.41;70.64;100187.81;4966605;29;20035;-69
2021/11/18 06:49:29;;;;;;;8.52;1.75;;;;;;;7.42;70.59;100182.66;4967074;29;20059;-68
2021/11/18 06:51:54;;;;;;;5.63;1.80;;;;;;;7.52;70.24;100182.66;4966652;29;20026;-68
2021/11/18 06:54:20;;;;;;;7.18;1.90;;;;;;;7.46;70.16;100175.75;4966435;29;20034;-68
2021/11/18 06:56:46;;;;;;;8.80;1.35;;;;;;;7.47;70.33;100174.91;4966378;29;20050;-68
2021/11/18 06:59:12;;;;;;;6.38;1.67;;;;;;;7.54;70.24;100168.88;4949096;29;20027;-68
2021/11/18 07:01:39;;;;;;;13.93;2.10;;;;;;;7.59;69.95;100176.63;4966273;29;20090;-68
2021/11/18 07:04:08;;;;;;;7.18;2.17;;;;;;;7.62;70.05;100171.44;4966339;29;20065;-69
2021/11/18 07:06:36;;;;;;;6.43;1.65;;;;;;;7.59;69.79;100168.88;4966460;29;20023;-68
2021/11/18 07:09:04;;;;;;;5.43;2.15;;;;;;;7.57;69.70;100168.88;4966168;29;20112;-68
2021/11/18 07:11:29;;;;;;;11.30;2.10;;;;;;;7.61;69.81;100168.88;4966179;29;20113;-68
2021/11/18 07:13:55;;;;;;;10.90;1.70;;;;;;;7.62;69.96;100152.53;4966242;29;20420;-67
2021/11/18 07:16:22;;;;;;;10.43;2.20;;;;;;;7.65;69.49;100161.09;4965995;28;20559;-68
2021/11/18 07:18:48;;;;;;;8.32;1.95;;;;;;;7.67;69.90;100161.09;4966176;29;20035;-68
2021/11/18 07:21:16;;;;;;;12.68;2.13;;;;;;;7.75;69.89;100161.09;4965956;29;20027;-68
2021/11/18 07:23:42;;;;;;;11.63;1.88;;;;;;;7.84;69.48;100181.78;4966080;29;20102;-69
2021/11/18 07:26:09;;;;;;;9.60;1.77;;;;;;;7.83;69.53;100202.47;4966029;29;20027;-68
2021/11/18 07:28:36;;;;;;;9.93;1.88;;;;;;;7.81;69.50;100207.66;4965878;29;20069;-68
2021/11/18 07:31:02;;;;;;;12.07;2.03;;;;;;;7.86;69.44;100220.56;4965955;29;20030;-68
2021/11/18 07:33:29;;;;;;;11.68;1.70;;;;;;;7.91;69.63;100222.28;4948613;29;20054;-68
2021/11/18 07:35:54;;;;;;;7.90;1.92;;;;;;;7.90;69.61;100201.59;4948586;29;20035;-67
2021/11/18 07:38:22;;;;;;;10.20;2.50;;;;;;;7.93;69.61;100173.16;4965740;29;20024;-67
2021/11/18 07:40:48;;;;;;;9.48;1.80;;;;;;;7.89;69.75;100168.88;4965739;29;20445;-67
2021/11/18 07:43:19;;;;;;;13.48;2.03;;;;;;;7.91;69.63;100174.88;4965887;29;20037;-67
2021/11/18 07:45:59;;;;;;;8.87;2.43;;;;;;;7.83;69.64;100169.72;4948547;29;20023;-68
2021/11/18 07:48:25;;;;;;;8.00;2.08;;;;;;;7.99;69.49;100200.72;4965274;29;20029;-68
2021/11/18 07:50:51;;;;;;;8.23;2.08;;;;;;;7.93;69.55;100199.00;4965640;29;20027;-68
2021/11/18 07:53:16;;;;;;;12.75;2.03;;;;;;;7.85;69.27;100173.16;4965554;29;20127;-69
2021/11/18 07:55:43;;;;;;;7.65;1.38;;;;;;;8.01;68.99;100180.91;4948315;29;20039;-68
2021/11/18 07:58:09;;;;;;;12.20;2.05;;;;;;;8.00;68.73;100179.19;4948329;29;20328;-68
2021/11/18 08:00:35;;;;;;;5.60;1.60;;;;;;;8.02;68.78;100172.31;4965699;29;20027;-68
2021/11/18 08:03:09;;;;;;;9.27;1.70;;;;;;;8.01;68.10;100183.47;4964080;29;20023;-68
2021/11/18 08:05:35;;;;;;;14.40;2.35;;;;;;;8.06;68.54;100192.97;4965373;29;20015;-69
2021/11/18 08:08:00;;;;;;;11.90;1.63;;;;;;;8.11;68.43;100186.91;4965350;29;20058;-70
2021/11/18 08:10:26;;;;;;;14.63;2.17;;;;;;;8.13;68.22;100188.63;4965397;29;20050;-67
2021/11/18 08:12:51;;;;;;;9.52;4.07;;;;;;;8.12;68.14;100186.91;4965509;29;20026;-67
2021/11/18 08:15:18;;;;;;;11.77;2.30;;;;;;;8.14;67.82;100187.78;4965371;29;20054;-67
2021/11/18 08:17:44;;;;;;;8.98;2.88;;;;;;;8.18;67.90;100181.72;4965025;29;20044;-68
2021/11/18 08:20:11;;;;;;;12.80;1.88;;;;;;;8.21;68.12;100185.19;4965259;29;20043;-68
2021/11/18 08:22:37;;;;;;;11.90;2.38;;;;;;;8.19;68.07;100188.63;4965295;29;20034;-67
2021/11/18 08:25:04;;;;;;;6.88;1.60;;;;;;;8.30;67.92;100190.34;4965237;29;20411;-68
2021/11/18 08:27:29;;;;;;;7.93;2.28;;;;;;;8.34;68.10;100194.63;4964741;28;20041;-68
2021/11/18 08:29:54;;;;;;;5.15;2.22;;;;;;;8.45;67.95;100188.56;4965300;29;20046;-67
2021/11/18 08:32:20;;;;;;;11.55;2.10;;;;;;;8.50;67.99;100192.00;4964887;29;20078;-68
2021/11/18 08:34:47;;;;;;;8.07;1.73;;;;;;;8.55;67.86;100187.69;4947638;29;20130;-67
2021/11/18 08:37:13;;;;;;;19.77;3.58;;;;;;;8.63;68.11;100188.53;4965156;29;20115;-67
2021/11/18 08:39:39;;;;;;;9.65;1.67;;;;;;;8.68;68.07;100181.63;4965043;29;20035;-68
2021/11/18 08:42:09;;;;;;;11.45;2.50;;;;;;;8.77;68.12;100165.16;4964957;29;20019;-68
2021/11/18 08:44:36;;;;;;;5.97;1.58;;;;;;;9.03;68.18;100178.84;4964900;29;20069;-67
2021/11/18 08:47:04;;;;;;;10.52;1.80;;;;;;;9.22;67.58;100173.56;4964979;29;20055;-67
2021/11/18 08:49:30;;;;;;;14.85;1.90;;;;;;;9.29;67.45;100165.75;4965016;29;20027;-67
2021/11/18 08:51:57;;;;;;;8.85;1.65;;;;;;;9.33;67.34;100166.56;4964811;29;20255;-67
2021/11/18 08:54:26;;;;;;;7.90;1.90;;;;;;;9.30;66.86;100170.06;4964885;29;20023;-68
2021/11/18 08:56:54;;;;;;;9.77;1.85;;;;;;;9.26;67.01;100181.31;4964920;29;20031;-68
2021/11/18 08:59:21;;;;;;;8.90;1.83;;;;;;;9.21;67.26;100190.84;4965002;29;20034;-68
2021/11/18 09:01:53;;;;;;;12.52;2.13;;;;;;;9.19;67.06;100192.56;4964626;29;20112;-67
2021/11/18 09:04:22;;;;;;;8.43;2.20;;;;;;;9.19;67.19;100195.16;4965000;29;20102;-68
2021/11/18 09:06:47;;;;;;;9.10;2.00;;;;;;;9.22;67.59;100182.19;4964775;29;20038;-69
2021/11/18 09:09:15;;;;;;;9.40;1.73;;;;;;;9.29;67.56;100172.66;4965047;29;20019;-69
2021/11/18 09:11:42;;;;;;;7.85;2.30;;;;;;;9.40;67.98;100167.38;4964721;29;20365;-69
2021/11/18 09:14:10;;;;;;;15.85;2.60;;;;;;;9.58;67.85;100173.31;4964525;29;20051;-69
2021/11/18 09:16:36;;;;;;;16.98;3.03;;;;;;;9.65;67.67;100155.09;4964537;29;20067;-67
2021/11/18 09:19:04;;;;;;;15.48;3.13;;;;;;;9.72;67.63;100155.91;4964706;29;20024;-67
2021/11/18 09:21:30;;;;;;;9.60;1.88;;;;;;;9.73;67.71;100156.78;4964875;29;20087;-68
2021/11/18 09:24:06;;;;;;;9.65;2.08;;;;;;;9.75;68.05;100150.69;4947545;29;20059;-67
2021/11/18 09:26:34;;;;;;;17.13;2.78;;;;;;;9.75;68.21;100150.69;4964832;29;20024;-67
2021/11/18 09:29:00;;;;;;;10.93;1.80;;;;;;;9.78;68.12;100171.41;4964648;29;20131;-68
2021/11/18 09:31:27;;;;;;;13.98;2.10;;;;;;;9.71;68.55;100174.06;4964782;29;20543;-67
2021/11/18 09:33:54;;;;;;;14.82;2.13;;;;;;;9.61;69.12;100176.75;4964437;29;20023;-67
2021/11/18 09:36:22;;;;;;;10.55;2.10;;;;;;;9.50;69.85;100163.00;4964741;29;20031;-67
2021/11/18 09:38:49;;;;;;;18.58;2.05;;;;;;;9.48;70.19;100167.31;4964673;28;20032;-67
2021/11/18 09:41:27;;;;;;;15.32;2.50;;;;;;;9.45;70.50;100162.16;4967444;29;20417;-67
2021/11/18 09:43:52;;;;;;;10.52;2.95;;;;;;;9.36;70.81;100151.00;4968312;29;20532;-68
2021/11/18 09:46:39;;;;;;;18.48;3.15;;;;;;;9.27;71.37;100144.16;4968185;29;20027;-67
2021/11/18 09:49:13;;;;;;;12.80;2.95;;;;;;;9.29;71.53;100136.38;4968081;29;20019;-67
2021/11/18 09:52:00;;;;;;;14.98;3.22;;;;;;;9.22;72.16;100137.31;4968020;29;20230;-67
2021/11/18 09:54:44;;;;;;;17.88;3.22;;;;;;;9.18;72.33;100154.59;4967812;29;20035;-69
2021/11/18 09:57:22;;;;;;;14.40;2.63;;;;;;;9.18;72.33;100150.25;4968049;29;20023;-67
2021/11/18 10:00:08;;;;;;;12.45;2.60;;;;;;;9.17;72.58;100156.31;4967901;29;20023;-67
2021/11/18 10:02:43;;;;;;;20.75;3.35;;;;;;;9.18;72.83;100152.00;4967756;29;20023;-67
2021/11/18 10:05:23;;;;;;;15.25;2.85;;;;;;;9.20;72.98;100160.59;4967821;29;20027;-67
2021/11/18 10:08:05;;;;;;;15.15;2.80;;;;;;;9.17;73.33;100145.09;4967770;29;20023;-68
2021/11/18 10:10:33;;;;;;;16.27;2.70;;;;;;;9.15;73.47;100139.91;4967899;29;20244;-68
2021/11/18 10:13:40;;;;;;;12.18;2.70;;;;;;;9.12;74.03;100139.94;4967842;29;20082;-67
2021/11/18 10:16:17;;;;;;;16.50;3.10;;;;;;;9.02;74.34;100138.28;4967331;29;20062;-67
2021/11/18 10:18:46;;;;;;;12.82;3.72;;;;;;;9.06;74.59;100137.41;4967237;29;20031;-67
2021/11/18 10:21:23;;;;;;;28.42;4.13;;;;;;;9.01;74.93;100136.59;4967457;29;20050;-68
2021/11/18 10:23:52;;;;;;;29.27;4.03;;;;;;;8.93;75.05;100134.00;4967594;29;20027;-68
2021/11/18 10:26:25;;;;;;;21.45;4.35;;;;;;;8.86;75.89;100128.03;4967471;29;20026;-68
2021/11/18 10:29:10;;;;;;;20.50;3.35;;;;;;;8.79;76.75;100124.63;4967211;29;20027;-68
2021/11/18 10:32:06;;;;;;;14.00;3.20;;;;;;;8.76;77.36;100131.53;4967265;29;20033;-67
2021/11/18 10:34:51;;;;;;;17.88;4.25;;;;;;;8.73;77.19;100131.56;4950732;29;20095;-68
2021/11/18 10:37:25;;;;;;;20.10;3.45;;;;;;;8.68;77.57;100132.44;4949775;29;20066;-68
2021/11/18 10:39:57;;;;;;;19.33;3.30;;;;;;;8.57;78.29;100131.63;4967053;29;20669;-68
2021/11/18 10:42:31;;;;;;;;;;;;;;;8.63;79.03;100135.91;4967851;29;20031;-68
2021/11/18 10:45:37;;;;;;;24.33;2.95;;;;;;;8.57;79.13;100130.75;4949687;29;19914;-68
2021/11/18 10:48:17;;;;;;;24.42;3.10;;;;;;;8.55;79.65;100130.75;4966835;29;20102;-68
2021/11/18 10:50:48;;;;;;;20.83;3.38;;;;;;;8.58;79.74;100127.31;4966536;28;20506;-69
2021/11/18 10:53:51;;;;;;;28.40;5.10;;;;;;;8.56;79.70;100116.97;4949779;29;20356;-67
2021/11/18 10:56:23;;;;;;;23.73;4.25;;;;;;;8.56;80.08;100109.22;4949233;29;20035;-67
2021/11/18 10:59:10;;;;;;;17.10;3.60;;;;;;;8.51;80.38;100104.03;4966756;29;20023;-68
2021/11/18 11:01:43;;;;;;;22.67;5.22;;;;;;;8.53;80.49;100088.50;4966746;29;20046;-67
2021/11/18 11:04:11;;;;;;;25.52;3.47;;;;;;;8.59;80.30;100077.28;4966701;29;20049;-67
2021/11/18 11:06:40;;;;;;;30.23;4.97;;;;;;;8.59;80.38;100083.31;4966684;29;20027;-67
2021/11/18 11:09:08;;;;;;;26.17;3.95;;;;;;;8.62;80.44;100067.78;4966445;29;20058;-68
2021/11/18 11:12:02;;;;;;;26.98;4.93;;;;;;;8.63;80.29;100081.56;4966640;29;20027;-67
2021/11/18 11:14:42;;;;;;;25.17;4.22;;;;;;;8.62;80.49;100072.97;4966440;29;20031;-68
2021/11/18 11:17:42;;;;;;;24.73;3.63;;;;;;;8.66;80.26;100072.06;4966161;29;20159;-67
2021/11/18 11:20:18;;;;;;;24.52;4.00;;;;;;;8.67;80.49;100073.78;4966127;29;20083;-66
2021/11/18 11:23:08;;;;;;;16.90;3.53;;;;;;;8.70;80.39;100061.69;4966356;29;20472;-68
2021/11/18 11:25:55;;;;;;;27.35;3.90;;;;;;;8.68;80.66;100078.09;4966537;29;20032;-67
2021/11/18 11:28:53;;;;;;;20.40;3.53;;;;;;;8.70;80.53;100065.16;4948904;29;20035;-67
2021/11/18 11:31:37;;;;;;;27.70;4.68;;;;;;;8.74;80.39;100058.22;4938364;29;20256;-66
2021/11/18 11:34:05;;;;;;;26.60;3.92;;;;;;;8.73;80.64;100053.91;4964764;29;20075;-67
2021/11/18 11:36:41;;;;;;;20.10;3.88;;;;;;;8.74;80.72;100045.28;4966267;29;20684;-67
2021/11/18 11:39:36;;;;;;;25.55;5.40;;;;;;;8.76;80.81;100017.66;4948471;29;20105;-67